createdAt,value
2023-03-05T00:00:56.697Z,0.00
2023-03-05T00:11:03.520Z,0.00
2023-03-05T00:21:10.506Z,0.00
2023-03-05T00:31:17.584Z,0.00
2023-03-05T00:41:24.491Z,0.00
2023-03-05T00:51:31.268Z,0.00
2023-03-05T01:01:38.466Z,0.00
2023-03-05T01:11:45.718Z,0.00
2023-03-05T01:21:52.901Z,0.00
2023-03-05T01:32:00.241Z,0.00
2023-03-05T01:42:06.661Z,0.00
2023-03-05T01:52:13.947Z,0.00
2023-03-05T02:02:21.402Z,0.00
2023-03-05T02:12:28.753Z,0.00
2023-03-05T02:22:36.086Z,0.00
2023-03-05T02:32:43.024Z,0.00
2023-03-05T02:42:50.828Z,0.00
2023-03-05T02:52:58.015Z,0.00
2023-03-05T03:03:05.599Z,0.00
2023-03-05T03:13:13.101Z,0.00
2023-03-05T03:23:20.548Z,0.00
2023-03-05T03:33:27.109Z,0.00
2023-03-05T03:43:34.036Z,0.00
2023-03-05T03:53:41.500Z,0.00
2023-03-05T04:03:48.181Z,0.00
2023-03-05T04:13:55.583Z,0.00
2023-03-05T04:24:02.315Z,0.00
2023-03-05T04:34:09.311Z,0.00
2023-03-05T04:44:16.514Z,0.00
2023-03-05T04:54:23.499Z,0.00
2023-03-05T05:04:30.484Z,0.00
2023-03-05T05:14:37.494Z,448.00
2023-03-05T05:24:44.666Z,440.00
2023-03-05T05:34:51.423Z,440.00
2023-03-05T05:44:58.633Z,448.00
2023-03-05T05:55:06.143Z,456.00
2023-03-05T06:05:12.864Z,472.00
2023-03-05T06:15:20.141Z,496.00
2023-03-05T06:25:27.097Z,492.00
2023-03-05T06:35:34.284Z,524.00
2023-03-05T06:45:40.923Z,584.00
2023-03-05T06:55:48.201Z,524.00
2023-03-05T07:05:55.175Z,608.00
2023-03-05T07:16:02.417Z,604.00
2023-03-05T07:26:08.922Z,572.00
2023-03-05T07:36:15.296Z,588.00
2023-03-05T07:46:21.487Z,652.00
2023-03-05T07:56:28.492Z,1104.00
2023-03-05T08:06:35.309Z,2628.00
2023-03-05T08:16:42.534Z,2508.00
2023-03-05T08:26:49.642Z,1768.00
2023-03-05T08:36:56.510Z,1584.00
2023-03-05T08:47:03.742Z,1112.00
2023-03-05T08:57:10.798Z,2216.00
2023-03-05T09:07:17.958Z,1276.00
2023-03-05T09:17:25.054Z,708.00
2023-03-05T09:27:31.682Z,620.00
2023-03-05T09:37:38.469Z,788.00
2023-03-05T09:47:45.013Z,1092.00
2023-03-05T09:57:52.075Z,656.00
2023-03-05T10:07:59.055Z,928.00
2023-03-05T10:18:06.692Z,572.00
2023-03-05T10:28:13.719Z,612.00
2023-03-05T10:38:20.882Z,772.00
2023-03-05T10:48:27.111Z,604.00
2023-03-05T10:58:34.248Z,592.00
2023-03-05T11:08:41.060Z,668.00
2023-03-05T11:18:47.537Z,660.00
2023-03-05T11:28:54.036Z,596.00
2023-03-05T11:39:01.195Z,860.00
2023-03-05T11:49:08.253Z,632.00
2023-03-05T11:59:15.488Z,588.00
2023-03-05T12:09:22.366Z,944.00
2023-03-05T12:19:29.763Z,840.00
2023-03-05T12:29:36.401Z,992.00
2023-03-05T12:39:44.005Z,736.00
2023-03-05T12:49:51.722Z,624.00
2023-03-05T12:59:59.062Z,856.00
2023-03-05T13:10:05.434Z,796.00
2023-03-05T13:20:12.884Z,812.00
2023-03-05T13:30:19.569Z,784.00
2023-03-05T13:40:26.935Z,752.00
2023-03-05T13:50:33.724Z,736.00
2023-03-05T14:00:40.655Z,612.00
2023-03-05T14:10:47.677Z,528.00
2023-03-05T14:20:54.095Z,604.00
2023-03-05T14:31:01.261Z,660.00
2023-03-05T14:41:07.998Z,612.00
2023-03-05T14:51:15.206Z,580.00
2023-03-05T15:01:22.404Z,568.00
2023-03-05T15:11:29.618Z,528.00
2023-03-05T15:21:37.260Z,504.00
2023-03-05T15:31:44.310Z,504.00
2023-03-05T15:41:51.333Z,484.00
2023-03-05T15:51:58.191Z,468.00
2023-03-05T16:02:04.523Z,476.00
2023-03-05T16:12:11.184Z,472.00
2023-03-05T16:22:18.209Z,460.00
2023-03-05T16:32:25.420Z,448.00
2023-03-05T16:42:32.686Z,440.00
2023-03-05T16:52:39.381Z,436.00
2023-03-05T17:02:46.739Z,436.00
2023-03-05T17:12:54.145Z,440.00
2023-03-05T17:23:01.092Z,440.00
2023-03-05T17:33:07.851Z,0.00
2023-03-05T17:43:14.796Z,0.00
2023-03-05T17:53:21.960Z,0.00
2023-03-05T18:03:28.900Z,0.00
2023-03-05T18:13:36.476Z,0.00
2023-03-05T18:23:43.802Z,0.00
2023-03-05T18:33:50.933Z,0.00
2023-03-05T18:43:57.974Z,0.00
2023-03-05T18:54:05.038Z,0.00
2023-03-05T19:04:12.051Z,0.00
2023-03-05T19:14:19.345Z,0.00
2023-03-05T19:24:26.103Z,0.00
2023-03-05T19:34:33.036Z,0.00
2023-03-05T19:44:39.463Z,0.00
2023-03-05T19:54:46.155Z,0.00
2023-03-05T20:04:52.413Z,0.00
2023-03-05T20:14:59.690Z,0.00
2023-03-05T20:25:06.559Z,0.00
2023-03-05T20:35:13.839Z,0.00
2023-03-05T20:45:20.263Z,0.00
2023-03-05T20:55:27.372Z,0.00
2023-03-05T21:05:34.532Z,0.00
2023-03-05T21:15:41.833Z,0.00
2023-03-05T21:25:48.739Z,0.00
2023-03-05T21:35:55.947Z,0.00
2023-03-05T21:46:03.194Z,0.00
2023-03-05T21:56:09.847Z,0.00
2023-03-05T22:06:16.919Z,0.00
2023-03-05T22:16:22.760Z,0.00
2023-03-05T22:26:30.288Z,0.00
2023-03-05T22:36:37.143Z,0.00
2023-03-05T22:46:43.452Z,0.00
2023-03-05T22:56:49.953Z,0.00
2023-03-05T23:06:57.083Z,0.00
2023-03-05T23:17:04.619Z,0.00
2023-03-05T23:27:11.689Z,0.00
2023-03-05T23:37:18.357Z,0.00
2023-03-05T23:47:25.640Z,0.00
2023-03-05T23:57:32.799Z,0.00
